createdAt,value
2023-08-17T00:03:41.407Z,25.10
2023-08-17T00:08:44.826Z,25.00
2023-08-17T00:13:48.165Z,24.90
2023-08-17T00:18:52.630Z,24.90
2023-08-17T00:23:55.770Z,24.90
2023-08-17T00:28:58.910Z,24.90
2023-08-17T00:34:03.387Z,24.90
2023-08-17T00:39:06.899Z,24.90
2023-08-17T00:44:10.105Z,24.80
2023-08-17T00:49:14.928Z,24.70
2023-08-17T00:54:23.332Z,24.80
2023-08-17T00:59:26.648Z,24.70
2023-08-17T01:04:31.202Z,24.70
2023-08-17T01:09:34.626Z,24.60
2023-08-17T01:14:45.597Z,24.50
2023-08-17T01:19:51.766Z,24.40
2023-08-17T01:24:59.246Z,24.40
2023-08-17T01:30:02.431Z,24.30
2023-08-17T01:35:13.781Z,24.30
2023-08-17T01:40:19.721Z,24.30
2023-08-17T01:45:23.026Z,24.20
2023-08-17T01:50:26.172Z,24.20
2023-08-17T01:55:30.860Z,24.20
2023-08-17T02:00:33.980Z,24.10
2023-08-17T02:05:37.138Z,24.10
2023-08-17T02:10:41.657Z,24.00
2023-08-17T02:15:44.980Z,24.00
2023-08-17T02:20:48.119Z,24.00
2023-08-17T02:25:52.628Z,23.90
2023-08-17T02:30:58.320Z,23.80
2023-08-17T02:36:02.525Z,23.60
2023-08-17T02:41:07.115Z,23.50
2023-08-17T02:46:10.798Z,23.40
2023-08-17T02:51:14.025Z,23.40
2023-08-17T02:56:18.619Z,23.20
2023-08-17T03:01:21.886Z,23.20
2023-08-17T03:06:25.127Z,23.20
2023-08-17T03:11:29.821Z,23.20
2023-08-17T03:16:32.986Z,23.20
2023-08-17T03:21:36.413Z,23.20
2023-08-17T03:26:40.948Z,23.10
2023-08-17T03:31:44.046Z,23.00
2023-08-17T03:36:47.191Z,22.90
2023-08-17T03:41:51.668Z,22.90
2023-08-17T03:46:54.794Z,22.90
2023-08-17T03:51:57.926Z,22.90
2023-08-17T03:57:02.433Z,22.90
2023-08-17T04:02:05.669Z,22.90
2023-08-17T04:07:09.553Z,22.80
2023-08-17T04:12:14.037Z,22.80
2023-08-17T04:17:17.311Z,22.70
2023-08-17T04:22:20.488Z,22.70
2023-08-17T04:27:25.228Z,22.70
2023-08-17T04:32:28.586Z,22.70
2023-08-17T04:37:31.760Z,22.70
2023-08-17T04:42:36.300Z,22.70
2023-08-17T04:47:39.661Z,22.60
2023-08-17T04:52:42.898Z,22.60
2023-08-17T04:57:47.477Z,22.60
2023-08-17T05:02:50.717Z,22.50
2023-08-17T05:07:55.188Z,22.50
2023-08-17T05:12:59.796Z,22.60
2023-08-17T05:18:03.038Z,22.60
2023-08-17T05:23:06.393Z,22.70
2023-08-17T05:28:10.907Z,22.60
2023-08-17T05:33:14.079Z,22.70
2023-08-17T05:38:17.252Z,22.70
2023-08-17T05:43:21.758Z,22.80
2023-08-17T05:48:24.973Z,22.80
2023-08-17T05:53:28.078Z,22.90
2023-08-17T05:58:32.745Z,22.90
2023-08-17T06:03:36.018Z,23.00
2023-08-17T06:08:39.181Z,23.10
2023-08-17T06:13:43.639Z,23.20
2023-08-17T06:18:47.136Z,23.20
2023-08-17T06:23:50.532Z,23.30
2023-08-17T06:28:55.030Z,23.40
2023-08-17T06:33:58.458Z,23.50
2023-08-17T06:39:01.798Z,23.60
2023-08-17T06:44:07.786Z,23.70
2023-08-17T06:49:10.928Z,23.80
2023-08-17T06:54:14.052Z,23.90
2023-08-17T06:59:18.529Z,24.10
2023-08-17T07:04:21.744Z,24.30
2023-08-17T07:09:24.965Z,24.50
2023-08-17T07:14:29.505Z,24.60
2023-08-17T07:19:57.741Z,24.80
2023-08-17T07:24:55.755Z,25.00
2023-08-17T07:30:00.258Z,25.20
2023-08-17T07:35:03.373Z,25.40
2023-08-17T07:40:08.161Z,25.50
2023-08-17T07:45:13.605Z,25.70
2023-08-17T07:50:16.771Z,25.90
2023-08-17T07:55:19.996Z,26.10
2023-08-17T08:00:24.543Z,26.40
2023-08-17T08:05:28.612Z,26.50
2023-08-17T08:10:31.740Z,26.80
2023-08-17T08:15:37.046Z,26.90
2023-08-17T08:20:40.571Z,27.20
2023-08-17T08:25:43.707Z,27.40
2023-08-17T08:30:48.286Z,27.60
2023-08-17T08:35:51.436Z,27.90
2023-08-17T08:40:54.545Z,28.10
2023-08-17T08:46:01.883Z,28.30
2023-08-17T08:51:09.913Z,28.50
2023-08-17T08:56:14.418Z,28.70
2023-08-17T09:01:20.075Z,28.90
2023-08-17T09:06:25.244Z,29.20
2023-08-17T09:11:28.371Z,29.40
2023-08-17T09:16:32.912Z,29.60
2023-08-17T09:21:36.210Z,29.80
2023-08-17T09:26:40.855Z,30.00
2023-08-17T09:31:45.824Z,30.20
2023-08-17T09:36:49.378Z,30.40
2023-08-17T09:41:52.510Z,30.50
2023-08-17T09:46:59.828Z,30.60
2023-08-17T09:52:03.728Z,30.70
2023-08-17T09:57:08.025Z,30.90
2023-08-17T10:02:20.662Z,31.10
2023-08-17T10:12:40.731Z,31.30
2023-08-17T10:17:51.224Z,31.50
2023-08-17T10:23:04.630Z,31.60
2023-08-17T10:28:09.043Z,31.70
2023-08-17T10:33:14.074Z,31.90
2023-08-17T10:38:18.700Z,32.00
2023-08-17T10:43:23.509Z,32.20
2023-08-17T10:48:37.552Z,32.30
2023-08-17T10:53:43.950Z,32.40
2023-08-17T10:58:47.186Z,32.50
2023-08-17T11:04:12.404Z,32.60
2023-08-17T11:09:19.748Z,32.70
2023-08-17T11:14:23.015Z,32.80
2023-08-17T11:19:27.663Z,32.90
2023-08-17T11:24:30.977Z,33.00
2023-08-17T11:29:34.371Z,33.10
2023-08-17T11:34:39.467Z,33.10
2023-08-17T11:39:42.606Z,33.10
2023-08-17T11:44:45.784Z,33.00
2023-08-17T11:49:51.675Z,33.00
2023-08-17T11:54:57.122Z,33.00
2023-08-17T12:00:01.678Z,33.00
2023-08-17T12:05:08.033Z,33.20
2023-08-17T12:10:12.707Z,33.30
2023-08-17T12:15:16.236Z,33.30
2023-08-17T12:20:22.117Z,33.30
2023-08-17T12:25:27.070Z,33.30
2023-08-17T12:30:32.762Z,33.30
2023-08-17T12:35:37.405Z,33.30
2023-08-17T12:40:40.595Z,33.30
2023-08-17T12:45:43.765Z,33.30
2023-08-17T12:50:48.268Z,33.20
2023-08-17T12:55:56.257Z,33.30
2023-08-17T13:00:59.505Z,33.30
2023-08-17T13:06:04.127Z,33.40
2023-08-17T13:11:07.338Z,33.50
2023-08-17T13:16:12.288Z,33.50
2023-08-17T13:21:19.177Z,33.50
2023-08-17T13:26:24.611Z,33.60
2023-08-17T13:31:27.826Z,33.70
2023-08-17T13:36:32.391Z,33.70
2023-08-17T13:41:35.498Z,33.70
2023-08-17T13:46:38.834Z,33.60
2023-08-17T13:51:43.405Z,33.70
2023-08-17T13:56:46.545Z,33.70
2023-08-17T14:01:49.771Z,33.80
2023-08-17T14:06:54.345Z,33.80
2023-08-17T14:11:57.503Z,33.80
2023-08-17T14:17:00.845Z,34.00
2023-08-17T14:22:05.527Z,34.00
2023-08-17T14:27:08.624Z,34.10
2023-08-17T14:32:11.895Z,34.00
2023-08-17T14:37:16.369Z,34.10
2023-08-17T14:42:19.478Z,34.10
2023-08-17T14:47:22.571Z,34.10
2023-08-17T14:52:33.703Z,34.10
2023-08-17T14:57:37.125Z,34.10
2023-08-17T15:02:40.291Z,34.10
2023-08-17T15:07:44.891Z,34.20
2023-08-17T15:12:48.018Z,34.20
2023-08-17T15:17:51.174Z,34.20
2023-08-17T15:22:55.705Z,34.20
2023-08-17T15:27:58.799Z,34.20
2023-08-17T15:33:01.931Z,34.20
2023-08-17T15:38:06.600Z,34.10
2023-08-17T15:43:09.698Z,34.00
2023-08-17T15:48:12.953Z,33.90
2023-08-17T15:53:17.489Z,33.80
2023-08-17T15:58:20.614Z,33.80
2023-08-17T16:03:24.526Z,33.70
2023-08-17T16:08:47.325Z,33.70
2023-08-17T16:13:52.108Z,33.60
2023-08-17T16:18:55.405Z,33.50
2023-08-17T16:23:59.887Z,33.50
2023-08-17T16:29:03.089Z,33.40
2023-08-17T16:34:06.263Z,33.20
2023-08-17T16:39:11.278Z,33.10
2023-08-17T16:44:14.402Z,32.90
2023-08-17T16:49:17.553Z,32.50
2023-08-17T16:54:22.037Z,32.00
2023-08-17T16:59:25.452Z,31.50
2023-08-17T17:04:28.570Z,31.00
2023-08-17T17:09:33.090Z,30.60
2023-08-17T17:14:36.217Z,30.20
2023-08-17T17:19:39.310Z,29.60
2023-08-17T17:24:43.793Z,29.10
2023-08-17T17:29:46.910Z,28.50
2023-08-17T17:34:50.078Z,27.90
2023-08-17T17:39:54.552Z,27.40
2023-08-17T17:44:58.499Z,26.90
2023-08-17T17:50:02.038Z,26.70
2023-08-17T17:55:07.663Z,26.50
2023-08-17T18:00:12.387Z,26.40
2023-08-17T18:05:15.523Z,26.20
2023-08-17T18:10:20.032Z,26.00
2023-08-17T18:15:23.293Z,25.80
2023-08-17T18:20:26.691Z,25.60
2023-08-17T18:25:33.081Z,25.50
2023-08-17T18:30:36.394Z,25.30
2023-08-17T18:35:39.523Z,25.30
2023-08-17T18:40:47.000Z,25.30
2023-08-17T18:45:50.134Z,25.40
2023-08-17T18:50:53.420Z,25.30
2023-08-17T18:55:57.900Z,25.30
2023-08-17T19:01:01.009Z,25.30
2023-08-17T19:06:04.333Z,25.30
2023-08-17T19:11:08.962Z,25.30
2023-08-17T19:16:12.100Z,25.20
2023-08-17T19:21:15.243Z,25.00
2023-08-17T19:26:19.781Z,24.90
2023-08-17T19:31:23.057Z,24.80
2023-08-17T19:36:26.261Z,24.70
2023-08-17T19:41:30.833Z,24.70
2023-08-17T19:46:34.064Z,24.70
2023-08-17T19:51:37.622Z,24.80
2023-08-17T19:56:42.710Z,24.80
2023-08-17T20:01:49.382Z,24.80
2023-08-17T20:06:53.028Z,24.80
2023-08-17T20:11:57.533Z,24.70
2023-08-17T20:17:00.845Z,24.70
2023-08-17T20:22:04.192Z,24.60
2023-08-17T20:27:08.797Z,24.60
2023-08-17T20:32:11.903Z,24.50
2023-08-17T20:37:15.008Z,24.50
2023-08-17T20:42:19.510Z,24.50
2023-08-17T20:47:24.488Z,24.50
2023-08-17T20:52:27.797Z,24.40
2023-08-17T20:57:32.444Z,24.30
2023-08-17T21:02:35.621Z,24.20
2023-08-17T21:07:38.784Z,24.10
2023-08-17T21:12:43.721Z,24.10
2023-08-17T21:17:47.814Z,24.00
2023-08-17T21:22:54.948Z,23.90
2023-08-17T21:27:59.421Z,23.90
2023-08-17T21:33:02.583Z,23.80
2023-08-17T21:38:06.343Z,23.70
2023-08-17T21:43:10.903Z,23.70
2023-08-17T21:48:14.060Z,23.60
2023-08-17T21:53:17.556Z,23.60
2023-08-17T21:58:22.145Z,23.60
2023-08-17T22:03:25.368Z,23.50
2023-08-17T22:08:28.699Z,23.50
2023-08-17T22:13:33.186Z,23.50
2023-08-17T22:18:36.317Z,23.40
2023-08-17T22:23:39.467Z,23.40
2023-08-17T22:28:44.001Z,23.40
2023-08-17T22:33:47.121Z,23.40
2023-08-17T22:38:50.238Z,23.50
2023-08-17T22:43:54.740Z,23.50
2023-08-17T22:48:57.927Z,23.50
2023-08-17T22:54:02.100Z,23.60
2023-08-17T22:59:07.417Z,23.60
2023-08-17T23:04:10.561Z,23.50
2023-08-17T23:09:13.785Z,23.50
2023-08-17T23:14:18.389Z,23.40
2023-08-17T23:19:21.499Z,23.30
2023-08-17T23:24:24.748Z,23.20
2023-08-17T23:29:29.251Z,23.20
2023-08-17T23:34:32.376Z,23.10
2023-08-17T23:39:35.494Z,23.10
2023-08-17T23:44:41.406Z,23.10
2023-08-17T23:49:45.730Z,23.10
2023-08-17T23:54:48.917Z,23.20
2023-08-17T23:59:53.541Z,23.10
